Darstellungsparameter: Aktuell verwendete Einstellungen:
Skalierung der Graphiken ... ?
xyx+y,   Skalierungsfaktor:      Skalierung: Modus: x, Faktor: 1
Darstellungszeitraum ... ?
Vom - - bis: - -   Zeitraum: 25.04.2005 - 24.04.2015
Min/Max/Avg-Anzeige ... ?
Zeige MMA aktuell
Zeige MMA Monat
Zeige MMA alles
Zeige --A aktuell
Zeige --A Monat
Zeige --A alles
Keine MMA-Anzeige
MMA:
Keine MMA-Graphiken
MMA-Basis: 25.04.2005 - 24.04.2015
Quicknavigation für Darstellung... ?
Tage:      1T, 2T, 3T, 5T -1T -2T -3T -5T +1T +2T +3T +5T
Wochen: 1W, 2W, 3W -1W -2W -3W +1W +2W +3W
Monate: 1M, 3M, 6M -1M -3M -6M +1M +3M +6M
Jahre:    1J, 3J, 5J, 10J -1J -3J -5J -10J +1J +3J +5J +10J
Nutze für die Darstellung ... ?
Originaldaten oder ...
Mittelwerte Minima Maxima auf...
Stundenbasis Tagesbasis Wochenbasis
Monatsbasis Jahresbasis      Datenbasis: Mittelwerte auf Monatsbasis
Darstellen als:
Statistik (Auto) Statistik J:M      Darstellung:
Zur Graphik,    zurück zur Übersicht aller Sensoren.
 
Tabellarische Datenbersicht: ?
 
Sensor: Nr:Datum:Temp:Abs-Feuchte:Windchill:Wind:
Aussen-T/F 1 01-04-2005 00:00:00 11.75573 C 6.77 g/m*3 11.76 C 0 km/h
2 01-05-2005 00:00:00 15.05924 C 8 g/m*3 15.06 C 0 km/h
3 01-06-2005 00:00:00 20.27763 C 9.05 g/m*3 20.28 C 0 km/h
4 01-07-2005 00:00:00 20.6784 C 10.8 g/m*3 20.68 C 0 km/h
5 01-08-2005 00:00:00 18.03605 C 10.06 g/m*3 18.04 C 0 km/h
6 01-09-2005 00:00:00 16.93889 C 9.55 g/m*3 16.94 C 0 km/h
7 01-10-2005 00:00:00 12.95821 C 8.74 g/m*3 12.96 C 0 km/h
8 01-11-2005 00:00:00 6.12486 C 5.81 g/m*3 6.12 C 0 km/h
9 01-12-2005 00:00:00 2.39762 C 4.53 g/m*3 2.4 C 0 km/h
10 01-01-2006 00:00:00 -0.84748 C 3.5 g/m*3 -0.85 C 0 km/h
11 01-02-2006 00:00:00 1.83319 C 3.89 g/m*3 1.83 C 0 km/h
12 01-03-2006 00:00:00 4.37314 C 4.16 g/m*3 4.37 C 0 km/h
13 01-04-2006 00:00:00 10.36633 C 5.74 g/m*3 10.37 C 0 km/h
14 01-05-2006 00:00:00 15.72132 C 8.05 g/m*3 15.72 C 0 km/h
15 01-06-2006 00:00:00 20.00486 C 9.31 g/m*3 20 C 0 km/h
16 01-07-2006 00:00:00 25.32282 C 11.24 g/m*3 25.32 C 0 km/h
17 01-08-2006 00:00:00 17.15743 C 10.23 g/m*3 17.16 C 0 km/h
18 01-09-2006 00:00:00 19.27974 C 10.86 g/m*3 19.28 C 0 km/h
19 01-10-2006 00:00:00 14.33561 C 9.28 g/m*3 14.34 C 0 km/h
20 01-11-2006 00:00:00 8.66421 C 6.72 g/m*3 8.66 C 0 km/h
21 01-12-2006 00:00:00 5.1238 C 5.12 g/m*3 5.12 C 0 km/h
22 01-01-2007 00:00:00 6.50769 C 4.66 g/m*3 6.51 C 0 km/h
23 01-02-2007 00:00:00 6.19771 C 4.92 g/m*3 6.2 C 0 km/h
24 01-03-2007 00:00:00 8.6729 C 5.16 g/m*3 8.67 C 0 km/h
25 01-04-2007 00:00:00 13.64719 C 5.73 g/m*3 13.65 C 0 km/h
Sensor: Nr:Datum:Temp:Abs-Feuchte:Windchill:Wind:
Aussen-T/F 26 01-05-2007 00:00:00 17.03196 C 8.43 g/m*3 17.03 C 0 km/h
27 01-06-2007 00:00:00 19.58027 C 10.43 g/m*3 19.58 C 0 km/h
28 01-07-2007 00:00:00 19.45619 C 9.59 g/m*3 19.46 C 0 km/h
29 01-08-2007 00:00:00 18.81883 C 10.16 g/m*3 18.82 C 0 km/h
30 01-09-2007 00:00:00 14.45221 C 8.63 g/m*3 14.45 C 0 km/h
31 01-10-2007 00:00:00 12.08977 C 7.86 g/m*3 12.09 C 0 km/h
32 01-11-2007 00:00:00 5.44725 C 5.47 g/m*3 5.45 C 0 km/h
33 01-12-2007 00:00:00 2.48122 C 4.34 g/m*3 2.48 C 0 km/h
34 01-01-2008 00:00:00 5.35122 C 4.88 g/m*3 5.35 C 0 km/h
35 01-02-2008 00:00:00 4.38505 C 4.28 g/m*3 4.39 C 0 km/h
36 01-03-2008 00:00:00 6.34296 C 4.29 g/m*3 6.34 C 0 km/h
37 01-04-2008 00:00:00 9.64593 C 5.99 g/m*3 9.65 C 0 km/h
38 01-05-2008 00:00:00 18.62709 C 7.87 g/m*3 18.63 C 0 km/h
39 01-06-2008 00:00:00 20.05406 C 9.43 g/m*3 20.05 C 0 km/h
40 01-07-2008 00:00:00 20.20426 C 9.85 g/m*3 20.2 C 0 km/h
41 01-08-2008 00:00:00 19.95194 C 9.85 g/m*3 19.95 C 0 km/h
42 01-09-2008 00:00:00 13.56618 C 8.08 g/m*3 13.57 C 0 km/h
43 01-10-2008 00:00:00 11.42875 C 7.76 g/m*3 11.43 C 0 km/h
44 01-11-2008 00:00:00 6.07023 C 5.76 g/m*3 6.07 C 0 km/h
45 01-12-2008 00:00:00 1.52941 C 4.47 g/m*3 1.53 C 0 km/h
46 01-01-2009 00:00:00 -1.56764 C 3.21 g/m*3 -1.57 C 0 km/h
47 01-02-2009 00:00:00 3.01574 C 4.13 g/m*3 3.02 C 0 km/h
48 01-03-2009 00:00:00 6.41904 C 4.69 g/m*3 6.42 C 0 km/h
49 01-04-2009 00:00:00 14.62991 C 7.17 g/m*3 14.63 C 0 km/h
50 01-05-2009 00:00:00 16.6395 C 8.17 g/m*3 16.64 C 0 km/h
Sensor: Nr:Datum:Temp:Abs-Feuchte:Windchill:Wind:
Aussen-T/F 51 01-06-2009 00:00:00 18.12883 C 8.92 g/m*3 18.13 C 0 km/h
52 01-07-2009 00:00:00 20.92787 C 10.24 g/m*3 20.93 C 0 km/h
53 01-08-2009 00:00:00 21.42827 C 10.01 g/m*3 21.43 C 0 km/h
54 01-09-2009 00:00:00 16.89747 C 9.42 g/m*3 16.9 C 0 km/h
55 01-10-2009 00:00:00 10.34649 C 7.08 g/m*3 10.35 C 0 km/h
56 01-11-2009 00:00:00 9.28793 C 6.76 g/m*3 9.29 C 0 km/h
57 01-12-2009 00:00:00 2.38203 C 4.43 g/m*3 2.38 C 0 km/h
58 01-01-2010 00:00:00 -1.14228 C 3.51 g/m*3 -1.14 C 0 km/h
59 01-02-2010 00:00:00 3.48183 C 4.33 g/m*3 3.48 C 0 km/h
60 01-03-2010 00:00:00 6.48443 C 4.45 g/m*3 6.48 C 0 km/h
61 01-04-2010 00:00:00 11.72868 C 5.14 g/m*3 11.73 C 0 km/h
62 01-05-2010 00:00:00 12.94841 C 7.11 g/m*3 12.95 C 0 km/h
63 01-06-2010 00:00:00 19.98271 C 8.83 g/m*3 19.98 C 0 km/h
64 01-07-2010 00:00:00 23.10471 C 10.06 g/m*3 23.1 C 0 km/h
65 01-08-2010 00:00:00 18.81238 C 10.22 g/m*3 18.81 C 0 km/h
66 01-09-2010 00:00:00 14.44098 C 8.69 g/m*3 14.44 C 0 km/h
67 01-10-2010 00:00:00 10.01383 C 6.83 g/m*3 10.01 C 0 km/h
68 01-11-2010 00:00:00 6.37202 C 5.72 g/m*3 6.37 C 0 km/h
69 01-12-2010 00:00:00 -1.81446 C 3.33 g/m*3 -1.81 C 0 km/h
70 01-01-2011 00:00:00 2.43723 C 4.53 g/m*3 2.44 C 0 km/h
71 01-02-2011 00:00:00 3.34179 C 4.35 g/m*3 3.34 C 0 km/h
72 01-03-2011 00:00:00 6.50695 C 4.65 g/m*3 6.51 C 0 km/h
73 01-04-2011 00:00:00 12.89077 C 6.67 g/m*3 12.89 C 0 km/h
74 01-05-2011 00:00:00 15.42354 C 6.84 g/m*3 15.42 C 0 km/h
75 01-06-2011 00:00:00 17.40752 C 9.25 g/m*3 17.41 C 0 km/h
Sensor: Nr:Datum:Temp:Abs-Feuchte:Windchill:Wind:
Aussen-T/F 76 01-07-2011 00:00:00 17.39503 C 9.03 g/m*3 17.4 C 0 km/h
77 01-08-2011 00:00:00 18.39148 C 10.56 g/m*3 18.39 C 0 km/h
78 01-09-2011 00:00:00 16.01184 C 9.47 g/m*3 16.01 C 0 km/h
79 01-10-2011 00:00:00 9.87443 C 7.12 g/m*3 9.87 C 0 km/h
80 01-11-2011 00:00:00 5.13267 C 5.8 g/m*3 5.13 C 0 km/h
81 01-12-2011 00:00:00 5.33333 C 5.82 g/m*3 4.18 C 5.77732 km/h
82 01-01-2012 00:00:00 4.20245 C 5.5 g/m*3 2.39 C 7.30497 km/h
83 01-02-2012 00:00:00 -0.24896 C 3.79 g/m*3 -1.99 C 5.25177 km/h
84 01-03-2012 00:00:00 8.52004 C 6.55 g/m*3 8.52 C 4.26789 km/h
85 01-04-2012 00:00:00 9.14843 C 6.64 g/m*3 8.75 C 5.1307 km/h
86 01-05-2012 00:00:00 15.25472 C 9.77 g/m*3 15.25 C 4.09853 km/h
87 01-06-2012 00:00:00 16.05053 C 11.03 g/m*3 16.05 C 4.00013 km/h
88 01-07-2012 00:00:00 17.72859 C 11.92 g/m*3 17.73 C 4.17325 km/h
89 01-08-2012 00:00:00 19.14243 C 12.32 g/m*3 19.14 C 3.44074 km/h
90 01-09-2012 00:00:00 13.74662 C 9.66 g/m*3 13.75 C 3.46337 km/h
91 01-10-2012 00:00:00 9.51337 C 8.09 g/m*3 9.51 C 3.4646 km/h
92 01-11-2012 00:00:00 6.4211 C 6.7 g/m*3 6.42 C 3.48415 km/h
93 01-12-2012 00:00:00 3.96629 C 5.68 g/m*3 2.43 C 6.29835 km/h
94 01-01-2013 00:00:00 2.16248 C 4.9 g/m*3 0.53 C 5.80819 km/h
95 01-02-2013 00:00:00 0.90825 C 4.44 g/m*3 0.91 C 4.73966 km/h
96 01-03-2013 00:00:00 2.27489 C 4.42 g/m*3 0.79 C 5.47379 km/h
97 01-04-2013 00:00:00 9.59169 C 6.58 g/m*3 8.95 C 6.20515 km/h
98 01-05-2013 00:00:00 12.31929 C 8.92 g/m*3 12.32 C 4.40264 km/h
99 01-06-2013 00:00:00 16.2181 C 10.95 g/m*3 16.22 C 4.94769 km/h
100 01-07-2013 00:00:00 20.04374 C 13.44 g/m*3 20.04 C 3.36961 km/h
Sensor: Nr:Datum:Temp:Abs-Feuchte:Windchill:Wind:
Aussen-T/F 101 01-08-2013 00:00:00 17.4935 C 12.33 g/m*3 17.49 C 2.0332 km/h
102 01-09-2013 00:00:00 14.18293 C 10.6 g/m*3 14.18 C 3.24054 km/h
103 01-10-2013 00:00:00 11.73689 C 9.59 g/m*3 11.74 C 2.51479 km/h
104 01-11-2013 00:00:00 6.26997 C 6.71 g/m*3 6.27 C 4.58038 km/h
105 01-12-2013 00:00:00 5.0276 C 6.09 g/m*3 4 C 5.28821 km/h
106 01-01-2014 00:00:00 5.29918 C 6.26 g/m*3 5.3 C 3.74913 km/h
107 01-02-2014 00:00:00 5.91916 C 6.15 g/m*3 4.89 C 5.67144 km/h
108 01-03-2014 00:00:00 7.98323 C 6.46 g/m*3 7.98 C 4.60447 km/h
109 01-04-2014 00:00:00 12.78205 C 8.41 g/m*3 12.78 C 4.48252 km/h
110 01-05-2014 00:00:00 13.9336 C 9.22 g/m*3 13.93 C 4.87058 km/h
111 01-06-2014 00:00:00 17.70175 C 10.73 g/m*3 17.7 C 4.61724 km/h
112 01-07-2014 00:00:00 20.17458 C 13.59 g/m*3 20.17 C 3.8342 km/h
113 01-08-2014 00:00:00 16.4643 C 12.02 g/m*3 16.46 C 2.88428 km/h
114 01-09-2014 00:00:00 15.50465 C 11.9 g/m*3 15.5 C 1.54977 km/h
115 01-10-2014 00:00:00 12.61647 C 10.35 g/m*3 12.62 C 1.9087 km/h
116 01-11-2014 00:00:00 7.86465 C 7.76 g/m*3 7.86 C 1.51348 km/h
117 01-12-2014 00:00:00 4.81205 C 6.1 g/m*3 3.16 C 7.12551 km/h
118 01-01-2015 00:00:00 3.72555 C 5.55 g/m*3 1.86 C 7.237 km/h
119 01-02-2015 00:00:00 3.05527 C 5.17 g/m*3 3.06 C 4.50666 km/h
120 01-03-2015 00:00:00 6.39693 C 6.15 g/m*3 5.28 C 6.16049 km/h
121 01-04-2015 00:00:00 10.20589 C 6.62 g/m*3 9.75 C 5.83164 km/h

Maximal/Minimal-Werte vom 25.04.2005 - 24.04.2015

Sensor Min Max Avg
Temp
(Aussen-T/F)
-16.4 °C
20-12-2009  01:30:01
36.9 °C
19-08-2012  16:30:00
10.9 °C
Abs-Feuchte
(Aussen-T/F)
3.21 g/m*3
01-01-2009  00:00:00
13.59 g/m*3
01-07-2014  00:00:00
7.42 g/m*3
Windchill
(Aussen-T/F)
-1.99 C
01-02-2012  00:00:00
25.32 C
01-07-2006  00:00:00
10.89 C

Die Daten stammen von einer Davis Vantage Pro 2 Wetter-Station und werden unter Linux mit der Software wview2wettercgi und aufbereitet. Alle Angaben erfolgen ohne Gewähr für ihre Vollständigkeit oder Richtigkeit.
Kontakt: Rainer Krienke krienke@uni-koblenz.de . Meine Webseiten an der Uni Koblenz oder privat.
Version: $Revision: 0.78 $